sensor_id;sensor_type;location;lat;lon;timestamp;P1;durP1;ratioP1;P2;durP2;ratioP2
11921;SDS011;6021;51.182;3.160;2023-02-01T00:01:24;18.57;;;3.70;;
11921;SDS011;6021;51.182;3.160;2023-02-01T00:03:53;16.80;;;3.80;;
11921;SDS011;6021;51.182;3.160;2023-02-01T00:06:21;19.17;;;4.33;;
11921;SDS011;6021;51.182;3.160;2023-02-01T00:08:52;14.33;;;3.83;;
11921;SDS011;6021;51.182;3.160;2023-02-01T00:11:21;17.30;;;3.87;;
11921;SDS011;6021;51.182;3.160;2023-02-01T00:13:51;14.40;;;3.53;;
11921;SDS011;6021;51.182;3.160;2023-02-01T00:16:24;13.03;;;3.50;;
11921;SDS011;6021;51.182;3.160;2023-02-01T00:18:58;14.07;;;3.47;;
11921;SDS011;6021;51.182;3.160;2023-02-01T00:21:28;12.60;;;3.43;;
11921;SDS011;6021;51.182;3.160;2023-02-01T00:23:57;13.53;;;2.93;;
11921;SDS011;6021;51.182;3.160;2023-02-01T00:29:01;16.13;;;3.60;;
11921;SDS011;6021;51.182;3.160;2023-02-01T00:31:31;11.83;;;3.20;;
11921;SDS011;6021;51.182;3.160;2023-02-01T00:34:00;11.30;;;3.25;;
11921;SDS011;6021;51.182;3.160;2023-02-01T00:36:28;14.87;;;3.20;;
11921;SDS011;6021;51.182;3.160;2023-02-01T00:38:57;16.13;;;3.30;;
11921;SDS011;6021;51.182;3.160;2023-02-01T00:41:26;13.43;;;3.10;;
11921;SDS011;6021;51.182;3.160;2023-02-01T00:43:54;13.63;;;3.80;;
11921;SDS011;6021;51.182;3.160;2023-02-01T00:46:22;16.37;;;3.53;;
11921;SDS011;6021;51.182;3.160;2023-02-01T00:48:53;14.60;;;3.50;;
11921;SDS011;6021;51.182;3.160;2023-02-01T00:51:22;14.00;;;3.50;;
11921;SDS011;6021;51.182;3.160;2023-02-01T00:53:52;13.00;;;3.70;;
11921;SDS011;6021;51.182;3.160;2023-02-01T00:56:21;15.23;;;3.50;;
11921;SDS011;6021;51.182;3.160;2023-02-01T00:58:50;16.67;;;3.57;;
11921;SDS011;6021;51.182;3.160;2023-02-01T01:01:19;13.73;;;3.70;;
11921;SDS011;6021;51.182;3.160;2023-02-01T01:03:55;15.63;;;3.70;;
11921;SDS011;6021;51.182;3.160;2023-02-01T01:06:26;11.80;;;3.47;;
11921;SDS011;6021;51.182;3.160;2023-02-01T01:08:57;13.20;;;2.63;;
11921;SDS011;6021;51.182;3.160;2023-02-01T01:11:28;16.53;;;3.87;;
11921;SDS011;6021;51.182;3.160;2023-02-01T01:13:58;11.55;;;3.58;;
11921;SDS011;6021;51.182;3.160;2023-02-01T01:16:27;13.43;;;3.80;;
11921;SDS011;6021;51.182;3.160;2023-02-01T01:18:57;16.70;;;3.97;;
11921;SDS011;6021;51.182;3.160;2023-02-01T01:21:26;13.03;;;3.60;;
11921;SDS011;6021;51.182;3.160;2023-02-01T01:23:54;16.17;;;3.77;;
11921;SDS011;6021;51.182;3.160;2023-02-01T01:26:24;17.07;;;4.20;;
11921;SDS011;6021;51.182;3.160;2023-02-01T01:28:54;16.47;;;4.23;;
11921;SDS011;6021;51.182;3.160;2023-02-01T01:31:24;18.40;;;4.73;;
11921;SDS011;6021;51.182;3.160;2023-02-01T01:33:54;14.43;;;3.77;;
11921;SDS011;6021;51.182;3.160;2023-02-01T01:36:23;18.63;;;4.53;;
11921;SDS011;6021;51.182;3.160;2023-02-01T01:38:53;20.03;;;4.47;;
11921;SDS011;6021;51.182;3.160;2023-02-01T01:41:23;17.90;;;4.00;;
11921;SDS011;6021;51.182;3.160;2023-02-01T01:43:58;13.83;;;4.17;;
11921;SDS011;6021;51.182;3.160;2023-02-01T01:46:32;16.87;;;4.63;;
11921;SDS011;6021;51.182;3.160;2023-02-01T01:49:09;19.10;;;4.17;;
11921;SDS011;6021;51.182;3.160;2023-02-01T01:52:00;21.73;;;4.63;;
11921;SDS011;6021;51.182;3.160;2023-02-01T01:54:28;18.53;;;4.53;;
11921;SDS011;6021;51.182;3.160;2023-02-01T01:57:05;20.23;;;4.27;;
11921;SDS011;6021;51.182;3.160;2023-02-01T01:59:36;18.93;;;4.27;;
11921;SDS011;6021;51.182;3.160;2023-02-01T02:02:06;20.37;;;4.20;;
11921;SDS011;6021;51.182;3.160;2023-02-01T02:04:35;16.33;;;4.07;;
11921;SDS011;6021;51.182;3.160;2023-02-01T02:07:05;17.27;;;4.27;;
11921;SDS011;6021;51.182;3.160;2023-02-01T02:09:44;16.23;;;4.23;;
11921;SDS011;6021;51.182;3.160;2023-02-01T02:12:13;17.87;;;4.10;;
11921;SDS011;6021;51.182;3.160;2023-02-01T02:14:41;19.27;;;4.27;;
11921;SDS011;6021;51.182;3.160;2023-02-01T02:17:23;19.00;;;4.17;;
11921;SDS011;6021;51.182;3.160;2023-02-01T02:28:30;18.50;;;4.37;;
11921;SDS011;6021;51.182;3.160;2023-02-01T02:42:10;16.80;;;3.80;;
11921;SDS011;6021;51.182;3.160;2023-02-01T02:45:44;21.67;;;4.87;;
11921;SDS011;6021;51.182;3.160;2023-02-01T02:48:08;16.50;;;4.50;;
11921;SDS011;6021;51.182;3.160;2023-02-01T02:50:42;18.07;;;4.43;;
11921;SDS011;6021;51.182;3.160;2023-02-01T02:56:34;18.40;;;4.07;;
11921;SDS011;6021;51.182;3.160;2023-02-01T02:59:22;13.20;;;3.80;;
11921;SDS011;6021;51.182;3.160;2023-02-01T03:02:10;14.63;;;3.13;;
11921;SDS011;6021;51.182;3.160;2023-02-01T03:05:01;21.67;;;3.77;;
11921;SDS011;6021;51.182;3.160;2023-02-01T03:10:24;18.90;;;3.80;;
11921;SDS011;6021;51.182;3.160;2023-02-01T03:12:54;19.93;;;4.43;;
11921;SDS011;6021;51.182;3.160;2023-02-01T03:15:30;19.70;;;4.27;;
11921;SDS011;6021;51.182;3.160;2023-02-01T03:17:55;19.40;;;4.27;;
11921;SDS011;6021;51.182;3.160;2023-02-01T03:20:27;19.93;;;4.37;;
11921;SDS011;6021;51.182;3.160;2023-02-01T03:22:57;12.73;;;3.90;;
11921;SDS011;6021;51.182;3.160;2023-02-01T03:25:27;14.27;;;3.90;;
11921;SDS011;6021;51.182;3.160;2023-02-01T03:28:00;16.40;;;4.10;;
11921;SDS011;6021;51.182;3.160;2023-02-01T03:30:42;25.50;;;5.03;;
11921;SDS011;6021;51.182;3.160;2023-02-01T03:33:15;16.43;;;3.80;;
11921;SDS011;6021;51.182;3.160;2023-02-01T03:35:59;16.90;;;4.10;;
11921;SDS011;6021;51.182;3.160;2023-02-01T03:38:40;16.20;;;3.33;;
11921;SDS011;6021;51.182;3.160;2023-02-01T03:44:16;17.97;;;4.40;;
11921;SDS011;6021;51.182;3.160;2023-02-01T03:47:03;26.00;;;4.97;;
11921;SDS011;6021;51.182;3.160;2023-02-01T03:49:58;18.77;;;4.13;;
11921;SDS011;6021;51.182;3.160;2023-02-01T03:52:30;18.53;;;4.27;;
11921;SDS011;6021;51.182;3.160;2023-02-01T03:55:03;17.97;;;4.03;;
11921;SDS011;6021;51.182;3.160;2023-02-01T03:57:34;17.20;;;4.20;;
11921;SDS011;6021;51.182;3.160;2023-02-01T04:00:05;14.13;;;3.73;;
11921;SDS011;6021;51.182;3.160;2023-02-01T04:02:38;16.07;;;4.33;;
11921;SDS011;6021;51.182;3.160;2023-02-01T04:05:07;18.77;;;4.77;;
11921;SDS011;6021;51.182;3.160;2023-02-01T04:07:36;16.23;;;4.37;;
11921;SDS011;6021;51.182;3.160;2023-02-01T04:10:05;17.97;;;4.00;;
11921;SDS011;6021;51.182;3.160;2023-02-01T04:12:34;16.20;;;3.93;;
11921;SDS011;6021;51.182;3.160;2023-02-01T04:15:02;13.30;;;3.70;;
11921;SDS011;6021;51.182;3.160;2023-02-01T04:17:31;16.63;;;3.90;;
11921;SDS011;6021;51.182;3.160;2023-02-01T04:20:00;17.37;;;4.20;;
11921;SDS011;6021;51.182;3.160;2023-02-01T04:22:28;18.70;;;4.23;;
11921;SDS011;6021;51.182;3.160;2023-02-01T04:24:56;14.13;;;3.80;;
11921;SDS011;6021;51.182;3.160;2023-02-01T04:27:25;13.17;;;3.80;;
11921;SDS011;6021;51.182;3.160;2023-02-01T04:29:53;17.17;;;4.27;;
11921;SDS011;6021;51.182;3.160;2023-02-01T04:32:22;11.17;;;2.83;;
11921;SDS011;6021;51.182;3.160;2023-02-01T04:34:50;16.97;;;4.00;;
11921;SDS011;6021;51.182;3.160;2023-02-01T04:37:19;16.87;;;4.00;;
11921;SDS011;6021;51.182;3.160;2023-02-01T04:39:47;17.23;;;4.20;;
11921;SDS011;6021;51.182;3.160;2023-02-01T04:42:16;13.07;;;2.83;;
11921;SDS011;6021;51.182;3.160;2023-02-01T04:44:44;13.77;;;3.17;;
11921;SDS011;6021;51.182;3.160;2023-02-01T04:47:13;12.77;;;3.37;;
11921;SDS011;6021;51.182;3.160;2023-02-01T04:49:42;19.63;;;4.33;;
11921;SDS011;6021;51.182;3.160;2023-02-01T04:52:10;19.07;;;4.07;;
11921;SDS011;6021;51.182;3.160;2023-02-01T04:54:38;15.10;;;4.00;;
11921;SDS011;6021;51.182;3.160;2023-02-01T04:57:07;15.80;;;4.27;;
11921;SDS011;6021;51.182;3.160;2023-02-01T04:59:35;17.37;;;4.30;;
11921;SDS011;6021;51.182;3.160;2023-02-01T05:02:04;15.90;;;3.87;;
11921;SDS011;6021;51.182;3.160;2023-02-01T05:04:32;17.70;;;4.10;;
11921;SDS011;6021;51.182;3.160;2023-02-01T05:07:00;14.93;;;3.80;;
11921;SDS011;6021;51.182;3.160;2023-02-01T05:09:29;19.47;;;4.20;;
11921;SDS011;6021;51.182;3.160;2023-02-01T05:11:57;17.37;;;4.40;;
11921;SDS011;6021;51.182;3.160;2023-02-01T05:14:43;18.23;;;4.20;;
11921;SDS011;6021;51.182;3.160;2023-02-01T05:17:11;19.73;;;4.10;;
11921;SDS011;6021;51.182;3.160;2023-02-01T05:19:40;20.37;;;4.70;;
11921;SDS011;6021;51.182;3.160;2023-02-01T05:22:08;16.00;;;4.10;;
11921;SDS011;6021;51.182;3.160;2023-02-01T05:24:37;14.60;;;3.97;;
11921;SDS011;6021;51.182;3.160;2023-02-01T05:27:05;17.33;;;4.10;;
11921;SDS011;6021;51.182;3.160;2023-02-01T05:29:33;19.77;;;4.13;;
11921;SDS011;6021;51.182;3.160;2023-02-01T05:32:02;11.40;;;3.60;;
11921;SDS011;6021;51.182;3.160;2023-02-01T05:34:30;16.10;;;3.87;;
11921;SDS011;6021;51.182;3.160;2023-02-01T05:36:59;15.20;;;3.53;;
11921;SDS011;6021;51.182;3.160;2023-02-01T05:39:29;15.80;;;3.97;;
11921;SDS011;6021;51.182;3.160;2023-02-01T05:41:58;15.67;;;3.70;;
11921;SDS011;6021;51.182;3.160;2023-02-01T05:44:28;17.80;;;4.53;;
11921;SDS011;6021;51.182;3.160;2023-02-01T05:46:56;13.50;;;3.87;;
11921;SDS011;6021;51.182;3.160;2023-02-01T05:49:25;15.67;;;3.30;;
11921;SDS011;6021;51.182;3.160;2023-02-01T05:51:53;16.67;;;4.47;;
11921;SDS011;6021;51.182;3.160;2023-02-01T05:54:21;15.63;;;3.73;;
11921;SDS011;6021;51.182;3.160;2023-02-01T05:56:50;22.97;;;4.33;;
11921;SDS011;6021;51.182;3.160;2023-02-01T05:59:18;18.47;;;4.33;;
11921;SDS011;6021;51.182;3.160;2023-02-01T06:01:46;19.83;;;4.40;;
11921;SDS011;6021;51.182;3.160;2023-02-01T06:04:15;13.80;;;3.87;;
11921;SDS011;6021;51.182;3.160;2023-02-01T06:06:43;15.03;;;3.70;;
11921;SDS011;6021;51.182;3.160;2023-02-01T06:09:12;18.13;;;4.50;;
11921;SDS011;6021;51.182;3.160;2023-02-01T06:11:40;13.53;;;4.00;;
11921;SDS011;6021;51.182;3.160;2023-02-01T06:14:10;18.63;;;3.63;;
11921;SDS011;6021;51.182;3.160;2023-02-01T06:16:38;18.77;;;3.87;;
11921;SDS011;6021;51.182;3.160;2023-02-01T06:19:07;16.27;;;3.87;;
11921;SDS011;6021;51.182;3.160;2023-02-01T06:21:37;16.17;;;4.07;;
11921;SDS011;6021;51.182;3.160;2023-02-01T06:24:05;14.73;;;3.77;;
11921;SDS011;6021;51.182;3.160;2023-02-01T06:26:34;17.00;;;3.80;;
11921;SDS011;6021;51.182;3.160;2023-02-01T06:29:02;15.53;;;4.30;;
11921;SDS011;6021;51.182;3.160;2023-02-01T06:31:32;16.33;;;4.27;;
11921;SDS011;6021;51.182;3.160;2023-02-01T06:34:02;15.90;;;3.90;;
11921;SDS011;6021;51.182;3.160;2023-02-01T06:36:31;19.90;;;4.10;;
11921;SDS011;6021;51.182;3.160;2023-02-01T06:38:59;18.87;;;4.40;;
11921;SDS011;6021;51.182;3.160;2023-02-01T06:41:27;16.00;;;3.50;;
11921;SDS011;6021;51.182;3.160;2023-02-01T06:43:56;14.55;;;3.70;;
11921;SDS011;6021;51.182;3.160;2023-02-01T06:46:26;17.43;;;3.67;;
11921;SDS011;6021;51.182;3.160;2023-02-01T06:48:56;16.47;;;3.80;;
11921;SDS011;6021;51.182;3.160;2023-02-01T06:51:25;16.03;;;3.80;;
11921;SDS011;6021;51.182;3.160;2023-02-01T06:53:55;17.07;;;3.73;;
11921;SDS011;6021;51.182;3.160;2023-02-01T06:56:24;16.10;;;4.00;;
11921;SDS011;6021;51.182;3.160;2023-02-01T06:58:53;14.73;;;3.53;;
11921;SDS011;6021;51.182;3.160;2023-02-01T07:01:22;17.87;;;4.07;;
11921;SDS011;6021;51.182;3.160;2023-02-01T07:03:50;19.97;;;4.30;;
11921;SDS011;6021;51.182;3.160;2023-02-01T07:06:19;15.13;;;3.90;;
11921;SDS011;6021;51.182;3.160;2023-02-01T07:08:47;14.53;;;3.80;;
11921;SDS011;6021;51.182;3.160;2023-02-01T07:11:19;21.13;;;4.13;;
11921;SDS011;6021;51.182;3.160;2023-02-01T07:13:48;21.50;;;4.83;;
11921;SDS011;6021;51.182;3.160;2023-02-01T07:16:18;19.07;;;4.10;;
11921;SDS011;6021;51.182;3.160;2023-02-01T07:18:47;20.97;;;4.67;;
11921;SDS011;6021;51.182;3.160;2023-02-01T07:21:17;14.63;;;3.87;;
11921;SDS011;6021;51.182;3.160;2023-02-01T07:23:46;16.83;;;4.00;;
11921;SDS011;6021;51.182;3.160;2023-02-01T07:26:15;17.07;;;4.00;;
11921;SDS011;6021;51.182;3.160;2023-02-01T07:28:43;19.03;;;4.27;;
11921;SDS011;6021;51.182;3.160;2023-02-01T07:31:17;16.13;;;4.13;;
11921;SDS011;6021;51.182;3.160;2023-02-01T07:33:48;21.97;;;5.13;;
11921;SDS011;6021;51.182;3.160;2023-02-01T07:36:21;16.63;;;4.30;;
11921;SDS011;6021;51.182;3.160;2023-02-01T07:38:50;18.80;;;4.27;;
11921;SDS011;6021;51.182;3.160;2023-02-01T07:41:18;17.93;;;4.23;;
11921;SDS011;6021;51.182;3.160;2023-02-01T07:43:47;18.03;;;4.17;;
11921;SDS011;6021;51.182;3.160;2023-02-01T07:46:16;14.50;;;4.07;;
11921;SDS011;6021;51.182;3.160;2023-02-01T07:48:45;17.57;;;4.10;;
11921;SDS011;6021;51.182;3.160;2023-02-01T07:51:14;16.20;;;4.00;;
11921;SDS011;6021;51.182;3.160;2023-02-01T07:53:44;19.03;;;4.80;;
11921;SDS011;6021;51.182;3.160;2023-02-01T07:56:16;21.00;;;4.73;;
11921;SDS011;6021;51.182;3.160;2023-02-01T07:58:49;17.87;;;4.47;;
11921;SDS011;6021;51.182;3.160;2023-02-01T08:01:21;17.03;;;4.33;;
11921;SDS011;6021;51.182;3.160;2023-02-01T08:03:52;15.40;;;4.00;;
11921;SDS011;6021;51.182;3.160;2023-02-01T08:06:29;17.33;;;4.03;;
11921;SDS011;6021;51.182;3.160;2023-02-01T08:08:59;15.43;;;3.53;;
11921;SDS011;6021;51.182;3.160;2023-02-01T08:11:27;17.30;;;4.07;;
11921;SDS011;6021;51.182;3.160;2023-02-01T08:13:57;16.77;;;3.60;;
11921;SDS011;6021;51.182;3.160;2023-02-01T08:16:25;17.77;;;4.00;;
11921;SDS011;6021;51.182;3.160;2023-02-01T08:18:54;18.07;;;4.10;;
11921;SDS011;6021;51.182;3.160;2023-02-01T08:21:23;20.40;;;4.07;;
11921;SDS011;6021;51.182;3.160;2023-02-01T08:23:55;14.97;;;3.87;;
11921;SDS011;6021;51.182;3.160;2023-02-01T08:26:25;19.10;;;4.13;;
11921;SDS011;6021;51.182;3.160;2023-02-01T08:28:55;14.43;;;3.70;;
11921;SDS011;6021;51.182;3.160;2023-02-01T08:31:27;15.83;;;4.30;;
11921;SDS011;6021;51.182;3.160;2023-02-01T08:33:57;16.67;;;4.23;;
11921;SDS011;6021;51.182;3.160;2023-02-01T08:36:28;15.90;;;3.80;;
11921;SDS011;6021;51.182;3.160;2023-02-01T08:38:57;15.73;;;4.30;;
11921;SDS011;6021;51.182;3.160;2023-02-01T08:41:29;17.20;;;3.90;;
11921;SDS011;6021;51.182;3.160;2023-02-01T08:43:58;17.77;;;3.80;;
11921;SDS011;6021;51.182;3.160;2023-02-01T08:46:27;14.53;;;3.77;;
11921;SDS011;6021;51.182;3.160;2023-02-01T08:48:56;15.23;;;3.93;;
11921;SDS011;6021;51.182;3.160;2023-02-01T08:51:24;17.80;;;4.13;;
11921;SDS011;6021;51.182;3.160;2023-02-01T08:53:53;16.47;;;3.67;;
11921;SDS011;6021;51.182;3.160;2023-02-01T08:56:21;14.90;;;2.80;;
11921;SDS011;6021;51.182;3.160;2023-02-01T08:58:49;15.97;;;2.83;;
11921;SDS011;6021;51.182;3.160;2023-02-01T09:01:19;14.33;;;3.93;;
11921;SDS011;6021;51.182;3.160;2023-02-01T09:03:48;15.90;;;4.20;;
11921;SDS011;6021;51.182;3.160;2023-02-01T09:06:16;12.90;;;3.50;;
11921;SDS011;6021;51.182;3.160;2023-02-01T09:08:45;20.70;;;4.10;;
11921;SDS011;6021;51.182;3.160;2023-02-01T09:11:14;12.57;;;2.57;;
11921;SDS011;6021;51.182;3.160;2023-02-01T09:13:46;13.93;;;3.77;;
11921;SDS011;6021;51.182;3.160;2023-02-01T09:16:15;13.10;;;3.80;;
11921;SDS011;6021;51.182;3.160;2023-02-01T09:18:46;14.43;;;3.43;;
11921;SDS011;6021;51.182;3.160;2023-02-01T09:21:15;12.50;;;3.47;;
11921;SDS011;6021;51.182;3.160;2023-02-01T09:23:44;15.20;;;4.00;;
11921;SDS011;6021;51.182;3.160;2023-02-01T09:26:14;15.53;;;3.80;;
11921;SDS011;6021;51.182;3.160;2023-02-01T09:28:42;13.83;;;3.67;;
11921;SDS011;6021;51.182;3.160;2023-02-01T09:31:11;13.00;;;3.17;;
11921;SDS011;6021;51.182;3.160;2023-02-01T09:33:39;15.60;;;3.47;;
11921;SDS011;6021;51.182;3.160;2023-02-01T09:36:07;15.77;;;3.30;;
11921;SDS011;6021;51.182;3.160;2023-02-01T09:38:36;11.20;;;2.87;;
11921;SDS011;6021;51.182;3.160;2023-02-01T09:41:14;14.97;;;3.00;;
11921;SDS011;6021;51.182;3.160;2023-02-01T09:44:00;14.17;;;2.87;;
11921;SDS011;6021;51.182;3.160;2023-02-01T09:46:36;9.93;;;2.47;;
11921;SDS011;6021;51.182;3.160;2023-02-01T09:49:08;13.47;;;3.10;;
11921;SDS011;6021;51.182;3.160;2023-02-01T09:51:41;11.30;;;2.50;;
11921;SDS011;6021;51.182;3.160;2023-02-01T09:54:13;10.93;;;2.60;;
11921;SDS011;6021;51.182;3.160;2023-02-01T09:56:46;10.73;;;2.50;;
11921;SDS011;6021;51.182;3.160;2023-02-01T09:59:29;12.27;;;2.93;;
11921;SDS011;6021;51.182;3.160;2023-02-01T10:02:03;9.67;;;2.47;;
11921;SDS011;6021;51.182;3.160;2023-02-01T10:04:34;13.97;;;2.57;;
11921;SDS011;6021;51.182;3.160;2023-02-01T10:10:02;14.37;;;2.70;;
11921;SDS011;6021;51.182;3.160;2023-02-01T10:15:39;13.87;;;3.03;;
11921;SDS011;6021;51.182;3.160;2023-02-01T10:18:27;11.07;;;2.60;;
11921;SDS011;6021;51.182;3.160;2023-02-01T10:21:04;11.33;;;3.07;;
11921;SDS011;6021;51.182;3.160;2023-02-01T10:26:42;10.40;;;2.53;;
11921;SDS011;6021;51.182;3.160;2023-02-01T10:29:15;9.47;;;2.33;;
11921;SDS011;6021;51.182;3.160;2023-02-01T10:31:46;13.60;;;2.53;;
11921;SDS011;6021;51.182;3.160;2023-02-01T10:34:22;8.70;;;2.37;;
11921;SDS011;6021;51.182;3.160;2023-02-01T10:36:57;13.17;;;2.60;;
11921;SDS011;6021;51.182;3.160;2023-02-01T10:39:46;12.43;;;2.37;;
11921;SDS011;6021;51.182;3.160;2023-02-01T10:42:20;10.57;;;2.30;;
11921;SDS011;6021;51.182;3.160;2023-02-01T10:44:54;12.53;;;2.73;;
11921;SDS011;6021;51.182;3.160;2023-02-01T10:47:25;11.00;;;2.50;;
11921;SDS011;6021;51.182;3.160;2023-02-01T10:58:16;11.20;;;2.20;;
11921;SDS011;6021;51.182;3.160;2023-02-01T11:00:44;13.77;;;2.70;;
11921;SDS011;6021;51.182;3.160;2023-02-01T11:03:37;11.07;;;2.60;;
11921;SDS011;6021;51.182;3.160;2023-02-01T11:06:17;9.83;;;2.43;;
11921;SDS011;6021;51.182;3.160;2023-02-01T11:08:53;8.60;;;2.33;;
11921;SDS011;6021;51.182;3.160;2023-02-01T11:11:19;10.90;;;2.37;;
11921;SDS011;6021;51.182;3.160;2023-02-01T11:13:58;14.47;;;2.67;;
11921;SDS011;6021;51.182;3.160;2023-02-01T11:16:28;13.03;;;3.13;;
11921;SDS011;6021;51.182;3.160;2023-02-01T11:18:57;10.43;;;2.33;;
11921;SDS011;6021;51.182;3.160;2023-02-01T11:21:27;10.63;;;2.67;;
11921;SDS011;6021;51.182;3.160;2023-02-01T11:27:17;5.93;;;1.87;;
11921;SDS011;6021;51.182;3.160;2023-02-01T11:30:18;8.57;;;2.30;;
11921;SDS011;6021;51.182;3.160;2023-02-01T11:32:57;7.60;;;2.30;;
11921;SDS011;6021;51.182;3.160;2023-02-01T11:35:31;8.40;;;2.27;;
11921;SDS011;6021;51.182;3.160;2023-02-01T11:38:00;8.43;;;2.20;;
11921;SDS011;6021;51.182;3.160;2023-02-01T11:40:36;7.53;;;2.27;;
11921;SDS011;6021;51.182;3.160;2023-02-01T11:45:55;11.20;;;2.30;;
11921;SDS011;6021;51.182;3.160;2023-02-01T11:48:31;7.20;;;2.20;;
11921;SDS011;6021;51.182;3.160;2023-02-01T11:54:02;9.17;;;2.30;;
11921;SDS011;6021;51.182;3.160;2023-02-01T11:56:33;9.50;;;2.27;;
11921;SDS011;6021;51.182;3.160;2023-02-01T11:59:19;9.87;;;2.50;;
11921;SDS011;6021;51.182;3.160;2023-02-01T12:10:43;9.90;;;2.50;;
11921;SDS011;6021;51.182;3.160;2023-02-01T12:13:34;10.97;;;2.57;;
11921;SDS011;6021;51.182;3.160;2023-02-01T12:15:53;9.37;;;2.50;;
11921;SDS011;6021;51.182;3.160;2023-02-01T12:30:07;15.30;;;3.33;;
11921;SDS011;6021;51.182;3.160;2023-02-01T12:35:20;11.47;;;2.43;;
11921;SDS011;6021;51.182;3.160;2023-02-01T12:38:00;12.03;;;2.53;;
11921;SDS011;6021;51.182;3.160;2023-02-01T12:43:22;11.87;;;2.50;;
11921;SDS011;6021;51.182;3.160;2023-02-01T12:45:56;9.83;;;2.43;;
11921;SDS011;6021;51.182;3.160;2023-02-01T12:48:51;10.97;;;2.33;;
11921;SDS011;6021;51.182;3.160;2023-02-01T12:51:23;7.63;;;2.03;;
11921;SDS011;6021;51.182;3.160;2023-02-01T12:56:27;11.07;;;2.50;;
11921;SDS011;6021;51.182;3.160;2023-02-01T12:59:02;8.63;;;2.20;;
11921;SDS011;6021;51.182;3.160;2023-02-01T13:01:42;11.83;;;2.80;;
11921;SDS011;6021;51.182;3.160;2023-02-01T13:04:38;7.93;;;2.60;;
11921;SDS011;6021;51.182;3.160;2023-02-01T13:06:47;11.83;;;2.77;;
11921;SDS011;6021;51.182;3.160;2023-02-01T13:09:28;11.93;;;2.70;;
11921;SDS011;6021;51.182;3.160;2023-02-01T13:11:59;9.13;;;2.23;;
11921;SDS011;6021;51.182;3.160;2023-02-01T13:14:53;11.80;;;2.87;;
11921;SDS011;6021;51.182;3.160;2023-02-01T13:17:24;12.23;;;2.70;;
11921;SDS011;6021;51.182;3.160;2023-02-01T13:22:38;9.97;;;2.60;;
11921;SDS011;6021;51.182;3.160;2023-02-01T13:25:25;14.33;;;2.87;;
11921;SDS011;6021;51.182;3.160;2023-02-01T13:27:57;11.37;;;2.60;;
11921;SDS011;6021;51.182;3.160;2023-02-01T13:30:24;12.73;;;3.10;;
11921;SDS011;6021;51.182;3.160;2023-02-01T13:33:05;13.53;;;2.97;;
11921;SDS011;6021;51.182;3.160;2023-02-01T13:35:37;12.00;;;2.70;;
11921;SDS011;6021;51.182;3.160;2023-02-01T13:41:30;9.83;;;2.50;;
11921;SDS011;6021;51.182;3.160;2023-02-01T13:44:11;13.13;;;3.33;;
11921;SDS011;6021;51.182;3.160;2023-02-01T13:46:41;10.17;;;3.03;;
11921;SDS011;6021;51.182;3.160;2023-02-01T13:49:19;16.43;;;3.20;;
11921;SDS011;6021;51.182;3.160;2023-02-01T13:51:52;13.20;;;2.90;;
11921;SDS011;6021;51.182;3.160;2023-02-01T13:54:31;12.23;;;2.93;;
11921;SDS011;6021;51.182;3.160;2023-02-01T13:57:01;13.70;;;3.30;;
11921;SDS011;6021;51.182;3.160;2023-02-01T14:05:12;14.90;;;3.00;;
11921;SDS011;6021;51.182;3.160;2023-02-01T14:10:47;11.17;;;2.80;;
11921;SDS011;6021;51.182;3.160;2023-02-01T14:23:56;14.10;;;3.17;;
11921;SDS011;6021;51.182;3.160;2023-02-01T14:32:06;18.10;;;4.17;;
11921;SDS011;6021;51.182;3.160;2023-02-01T14:34:49;15.27;;;3.50;;
11921;SDS011;6021;51.182;3.160;2023-02-01T14:37:30;14.63;;;3.63;;
11921;SDS011;6021;51.182;3.160;2023-02-01T14:40:15;15.00;;;3.30;;
11921;SDS011;6021;51.182;3.160;2023-02-01T14:42:48;13.07;;;3.37;;
11921;SDS011;6021;51.182;3.160;2023-02-01T14:47:54;15.93;;;3.37;;
11921;SDS011;6021;51.182;3.160;2023-02-01T14:50:36;12.80;;;3.27;;
11921;SDS011;6021;51.182;3.160;2023-02-01T14:58:23;14.73;;;3.50;;
11921;SDS011;6021;51.182;3.160;2023-02-01T15:00:54;16.50;;;3.47;;
11921;SDS011;6021;51.182;3.160;2023-02-01T15:03:34;13.13;;;3.87;;
11921;SDS011;6021;51.182;3.160;2023-02-01T15:06:24;15.73;;;3.13;;
11921;SDS011;6021;51.182;3.160;2023-02-01T15:09:07;15.70;;;3.30;;
11921;SDS011;6021;51.182;3.160;2023-02-01T15:14:24;12.90;;;3.43;;
11921;SDS011;6021;51.182;3.160;2023-02-01T15:16:55;20.03;;;3.30;;
11921;SDS011;6021;51.182;3.160;2023-02-01T15:19:24;17.37;;;3.60;;
11921;SDS011;6021;51.182;3.160;2023-02-01T15:21:55;11.40;;;2.97;;
11921;SDS011;6021;51.182;3.160;2023-02-01T15:24:29;13.20;;;3.07;;
11921;SDS011;6021;51.182;3.160;2023-02-01T15:27:08;13.47;;;2.90;;
11921;SDS011;6021;51.182;3.160;2023-02-01T15:29:32;12.47;;;3.03;;
11921;SDS011;6021;51.182;3.160;2023-02-01T15:32:01;13.97;;;3.60;;
11921;SDS011;6021;51.182;3.160;2023-02-01T15:34:47;12.00;;;2.93;;
11921;SDS011;6021;51.182;3.160;2023-02-01T15:37:20;16.03;;;2.97;;
11921;SDS011;6021;51.182;3.160;2023-02-01T15:40:14;13.50;;;3.10;;
11921;SDS011;6021;51.182;3.160;2023-02-01T15:42:48;13.27;;;3.20;;
11921;SDS011;6021;51.182;3.160;2023-02-01T15:45:21;15.47;;;3.07;;
11921;SDS011;6021;51.182;3.160;2023-02-01T15:47:52;15.18;;;3.15;;
11921;SDS011;6021;51.182;3.160;2023-02-01T15:50:26;12.63;;;3.00;;
11921;SDS011;6021;51.182;3.160;2023-02-01T15:52:56;13.03;;;2.90;;
11921;SDS011;6021;51.182;3.160;2023-02-01T15:55:36;13.00;;;2.97;;
11921;SDS011;6021;51.182;3.160;2023-02-01T15:58:15;15.07;;;3.13;;
11921;SDS011;6021;51.182;3.160;2023-02-01T16:00:53;14.13;;;3.00;;
11921;SDS011;6021;51.182;3.160;2023-02-01T16:03:36;18.63;;;3.70;;
11921;SDS011;6021;51.182;3.160;2023-02-01T16:11:31;14.57;;;3.23;;
11921;SDS011;6021;51.182;3.160;2023-02-01T16:14:02;15.37;;;3.43;;
11921;SDS011;6021;51.182;3.160;2023-02-01T16:16:30;10.13;;;3.33;;
11921;SDS011;6021;51.182;3.160;2023-02-01T16:18:58;16.10;;;3.30;;
11921;SDS011;6021;51.182;3.160;2023-02-01T16:21:28;12.43;;;3.50;;
11921;SDS011;6021;51.182;3.160;2023-02-01T16:23:58;18.17;;;4.27;;
11921;SDS011;6021;51.182;3.160;2023-02-01T16:26:30;8.77;;;2.80;;
11921;SDS011;6021;51.182;3.160;2023-02-01T16:28:59;15.07;;;3.93;;
11921;SDS011;6021;51.182;3.160;2023-02-01T16:31:30;15.03;;;3.00;;
11921;SDS011;6021;51.182;3.160;2023-02-01T16:34:00;18.37;;;3.77;;
11921;SDS011;6021;51.182;3.160;2023-02-01T16:36:29;15.53;;;3.50;;
11921;SDS011;6021;51.182;3.160;2023-02-01T16:39:06;16.17;;;3.80;;
11921;SDS011;6021;51.182;3.160;2023-02-01T16:41:37;13.00;;;2.90;;
11921;SDS011;6021;51.182;3.160;2023-02-01T16:44:06;17.07;;;3.80;;
11921;SDS011;6021;51.182;3.160;2023-02-01T16:46:35;11.47;;;3.17;;
11921;SDS011;6021;51.182;3.160;2023-02-01T16:49:05;10.70;;;3.00;;
11921;SDS011;6021;51.182;3.160;2023-02-01T16:51:37;14.00;;;3.70;;
11921;SDS011;6021;51.182;3.160;2023-02-01T16:54:11;14.77;;;3.30;;
11921;SDS011;6021;51.182;3.160;2023-02-01T16:56:37;12.03;;;3.10;;
11921;SDS011;6021;51.182;3.160;2023-02-01T16:59:08;15.50;;;3.20;;
11921;SDS011;6021;51.182;3.160;2023-02-01T17:01:37;11.93;;;3.07;;
11921;SDS011;6021;51.182;3.160;2023-02-01T17:04:07;11.13;;;3.40;;
11921;SDS011;6021;51.182;3.160;2023-02-01T17:06:38;11.40;;;2.80;;
11921;SDS011;6021;51.182;3.160;2023-02-01T17:09:11;12.17;;;3.00;;
11921;SDS011;6021;51.182;3.160;2023-02-01T17:11:39;10.40;;;2.90;;
11921;SDS011;6021;51.182;3.160;2023-02-01T17:14:17;15.17;;;2.80;;
11921;SDS011;6021;51.182;3.160;2023-02-01T17:16:48;11.90;;;3.23;;
11921;SDS011;6021;51.182;3.160;2023-02-01T17:19:17;12.53;;;3.17;;
11921;SDS011;6021;51.182;3.160;2023-02-01T17:21:51;11.73;;;3.13;;
11921;SDS011;6021;51.182;3.160;2023-02-01T17:24:23;15.53;;;3.00;;
11921;SDS011;6021;51.182;3.160;2023-02-01T17:26:55;15.23;;;3.13;;
11921;SDS011;6021;51.182;3.160;2023-02-01T17:29:23;11.37;;;3.10;;
11921;SDS011;6021;51.182;3.160;2023-02-01T17:31:53;10.77;;;3.00;;